Terminal Aerodrome Forecast
Issued by NWS Tuscon, AZ

Home | Current Version | Previous Version | Text Only | Print | Product List | Glossary On
Versions: 1 2 3 4 5 6 7 8 9 10 11 12 13 14 15 16 17
000
FTUS45 KTWC 181740
TAFDUG
TAF
KDUG 181740Z 1818/1918 VRB03KT P6SM FEW060
     FM182000 27009KT P6SM SCT060
     FM190200 34006KT P6SM FEW200
     FM191000 18005KT P6SM SCT200=

USA.gov is the U.S. government's official web portal to all federal, state and local government web resources and services.